Time;durP1;ratioP1;P1;durP2;ratioP2;P2;SDS_P1;SDS_P2;PMS_P1;PMS_P2;Temp;Humidity;BMP_temperature;BMP_pressure;BME280_temperature;BME280_humidity;BME280_pressure;Samples;Min_cycle;Max_cycle;Signal;HPM_P1;HPM_P2
2021/12/13 00:00:07;;;;;;;61.15;38.00;;;;;;;0.08;100.00;100733.77;1678505;85;21993;-81
2021/12/13 00:03:38;;;;;;;45.08;32.63;;;;;;;0.07;100.00;100727.16;1698845;84;21324;-81
2021/12/13 00:06:48;;;;;;;36.55;27.58;;;;;;;0.01;100.00;100723.52;1697814;84;21229;-80
2021/12/13 00:09:56;;;;;;;54.63;41.13;;;;;;;-0.01;100.00;100718.22;1679693;84;21165;-81
2021/12/13 00:13:14;;;;;;;49.75;31.95;;;;;;;-0.02;100.00;100715.16;1699999;84;21214;-81
2021/12/13 00:16:21;;;;;;;70.97;49.88;;;;;;;-0.03;100.00;100718.81;1699083;83;21910;-81
2021/12/13 00:19:30;;;;;;;47.05;33.42;;;;;;;-0.07;100.00;100707.38;1699940;84;21867;-81
2021/12/13 00:22:51;;;;;;;;;;;;;;;-0.07;100.00;100706.04;1702507;84;21158;-81
2021/12/13 00:25:59;;;;;;;76.60;60.63;;;;;;;-0.04;100.00;100709.03;1679722;85;20298;-80
2021/12/13 00:29:04;;;;;;;47.23;33.50;;;;;;;-0.07;100.00;100689.91;1677494;85;21411;-81
2021/12/13 00:32:17;;;;;;;34.88;21.23;;;;;;;-0.07;100.00;100693.08;1697084;84;21229;-81
2021/12/13 00:35:28;;;;;;;53.63;40.45;;;;;;;-0.11;100.00;100689.72;1698475;84;21549;-81
2021/12/13 00:38:33;;;;;;;93.12;72.03;;;;;;;-0.13;100.00;100680.89;1698783;84;21308;-80
2021/12/13 00:41:40;;;;;;;55.63;40.92;;;;;;;-0.12;100.00;100681.76;1698095;84;21836;-81
2021/12/13 00:44:55;;;;;;;60.52;45.95;;;;;;;-0.11;100.00;100687.52;1699050;84;21312;-81
2021/12/13 00:48:01;;;;;;;50.03;36.45;;;;;;;-0.10;100.00;100687.89;1699727;84;21389;-81
2021/12/13 00:51:25;;;;;;;49.42;29.35;;;;;;;-0.11;100.00;100680.30;1698379;84;21359;-81
2021/12/13 00:54:29;;;;;;;54.88;40.45;;;;;;;-0.10;100.00;100667.23;1696724;84;21867;-81
2021/12/13 00:57:41;;;;;;;47.98;36.50;;;;;;;-0.07;100.00;100668.39;1698988;84;21328;-81
2021/12/13 01:00:40;;;;;;;49.15;31.87;;;;;;;-0.09;100.00;100668.13;1699363;83;21347;-81
2021/12/13 01:03:55;;;;;;;48.40;37.48;;;;;;;-0.14;100.00;100671.56;1698998;84;21213;-82
2021/12/13 01:07:30;;;;;;;69.58;54.15;;;;;;;-0.16;100.00;100666.30;1698391;84;22682;-81
2021/12/13 01:11:15;;;;;;;36.83;23.25;;;;;;;-0.16;100.00;100660.05;1686105;84;21879;-81
2021/12/13 01:14:57;;;;;;;30.05;17.70;;;;;;;-0.16;100.00;100664.09;1699071;84;21197;-81
2021/12/13 01:21:38;;;;;;;47.60;35.55;;;;;;;-0.15;100.00;100668.50;1699759;84;21300;-81
2021/12/13 01:24:52;;;;;;;82.20;61.90;;;;;;;-0.15;100.00;100653.71;1681902;84;21284;-81
2021/12/13 01:27:55;;;;;;;30.15;20.80;;;;;;;-0.18;100.00;100633.77;1698933;84;21221;-81
2021/12/13 01:31:08;;;;;;;39.58;29.55;;;;;;;-0.21;100.00;100644.22;1698932;84;21210;-80
2021/12/13 01:34:13;;;;;;;44.13;28.87;;;;;;;-0.17;100.00;100649.78;1699008;84;21359;-81
2021/12/13 01:37:20;;;;;;;50.75;35.65;;;;;;;-0.15;100.00;100648.33;1698463;84;21906;-81
2021/12/13 01:40:29;;;;;;;47.65;35.92;;;;;;;-0.13;100.00;100659.88;1699864;84;21279;-81
2021/12/13 01:43:38;;;;;;;43.48;24.92;;;;;;;-0.12;100.00;100668.31;1699964;84;21832;-81
2021/12/13 01:46:46;;;;;;;38.05;20.72;;;;;;;-0.15;100.00;100673.88;1699982;84;21280;-81
2021/12/13 01:49:58;;;;;;;64.95;50.30;;;;;;;-0.14;100.00;100671.11;1699972;84;21268;-81
2021/12/13 01:53:04;;;;;;;41.65;31.68;;;;;;;-0.13;100.00;100657.18;1697571;84;21395;-81
2021/12/13 01:56:23;;;;;;;40.90;23.32;;;;;;;-0.14;100.00;100658.12;1698930;84;21296;-81
2021/12/13 02:02:48;;;;;;;42.67;29.70;;;;;;;-0.14;100.00;100654.09;1698437;84;21233;-81
2021/12/13 02:05:55;;;;;;;33.53;22.20;;;;;;;-0.17;100.00;100643.06;1703080;84;21268;-81
2021/12/13 02:09:03;;;;;;;42.30;24.98;;;;;;;-0.17;100.00;100643.55;1702729;84;21316;-81
2021/12/13 02:12:13;;;;;;;51.88;36.73;;;;;;;-0.14;100.00;100636.16;1702985;84;21165;-81
2021/12/13 02:18:46;;;;;;;46.20;34.25;;;;;;;-0.09;100.00;100641.23;1701909;84;21205;-81
2021/12/13 02:21:50;;;;;;;46.37;20.85;;;;;;;-0.17;100.00;100623.38;1702944;84;21300;-81
2021/12/13 02:24:56;;;;;;;41.65;22.02;;;;;;;-0.20;100.00;100624.92;1702616;84;21387;-81
2021/12/13 02:28:11;;;;;;;53.30;37.40;;;;;;;-0.24;100.00;100619.35;1702985;84;21269;-81
2021/12/13 02:31:23;;;;;;;43.52;29.12;;;;;;;-0.27;100.00;100614.57;1702231;84;21320;-81
2021/12/13 02:34:30;;;;;;;61.28;50.73;;;;;;;-0.29;100.00;100608.90;1700613;84;21359;-82
2021/12/13 02:37:36;;;;;;;34.08;21.55;;;;;;;-0.29;100.00;100625.89;1702943;84;21395;-81
2021/12/13 02:40:42;;;;;;;44.18;30.80;;;;;;;-0.28;100.00;100638.88;1702990;84;21339;-81
2021/12/13 02:43:51;;;;;;;35.83;18.73;;;;;;;-0.27;100.00;100648.66;1702944;84;21782;-81
2021/12/13 02:47:00;;;;;;;58.73;38.02;;;;;;;-0.31;100.00;100637.72;1702659;84;21312;-81
2021/12/13 02:50:06;;;;;;;38.73;21.82;;;;;;;-0.38;100.00;100637.23;1702085;84;21846;-81
2021/12/13 02:53:11;;;;;;;37.00;21.70;;;;;;;-0.43;100.00;100639.35;1700641;84;21260;-81
2021/12/13 02:56:20;;;;;;;38.92;21.73;;;;;;;-0.44;100.00;100636.30;1701999;84;21360;-81
2021/12/13 02:59:26;;;;;;;48.85;23.42;;;;;;;-0.46;100.00;100635.54;1700563;84;21629;-80
2021/12/13 03:02:43;;;;;;;75.90;56.98;;;;;;;-0.47;100.00;100633.82;1701306;84;21995;-81
2021/12/13 03:05:51;;;;;;;54.33;36.65;;;;;;;-0.42;100.00;100640.25;1699922;84;21169;-81
2021/12/13 03:09:07;;;;;;;49.23;30.50;;;;;;;-0.36;100.00;100646.08;1699755;84;21315;-80
2021/12/13 03:12:14;;;;;;;54.48;32.40;;;;;;;-0.28;100.00;100645.11;1700013;84;21870;-81
2021/12/13 03:15:23;;;;;;;54.38;30.52;;;;;;;-0.28;100.00;100643.77;1699356;84;21241;-81
2021/12/13 03:18:34;;;;;;;47.17;29.02;;;;;;;-0.33;100.00;100630.22;1700029;84;21181;-81
2021/12/13 03:22:10;;;;;;;63.73;49.00;;;;;;;-0.40;100.00;100623.05;1698529;84;22497;-81
2021/12/13 03:25:36;;;;;;;49.23;31.50;;;;;;;-0.38;100.00;100629.66;1697110;84;21354;-81
2021/12/13 03:28:54;;;;;;;59.33;40.23;;;;;;;-0.36;100.00;100629.95;1698588;84;21324;-80
2021/12/13 03:32:04;;;;;;;48.83;27.82;;;;;;;-0.37;100.00;100615.28;1697666;84;21228;-81
2021/12/13 03:35:26;;;;;;;42.55;24.63;;;;;;;-0.37;100.00;100642.16;1698886;84;21316;-81
2021/12/13 03:38:41;;;;;;;44.48;29.02;;;;;;;-0.41;100.00;100645.52;1699845;84;21367;-81
2021/12/13 03:41:48;;;;;;;41.83;28.32;;;;;;;-0.44;100.00;100637.64;1699893;84;21268;-80
2021/12/13 03:44:56;;;;;;;44.63;24.67;;;;;;;-0.43;100.00;100643.87;1699775;84;21328;-81
2021/12/13 03:48:03;;;;;;;45.92;28.80;;;;;;;-0.44;100.00;100647.05;1699907;84;21276;-81
2021/12/13 03:51:12;;;;;;;51.63;33.48;;;;;;;-0.48;100.00;100628.52;1699787;84;21296;-81
2021/12/13 03:54:20;;;;;;;47.70;29.48;;;;;;;-0.49;100.00;100616.05;1699425;84;21398;-81
2021/12/13 03:57:25;;;;;;;44.33;27.00;;;;;;;-0.47;100.00;100617.70;1698849;84;21481;-82
2021/12/13 04:00:35;;;;;;;61.23;32.25;;;;;;;-0.47;100.00;100629.79;1698856;84;21740;-81
2021/12/13 04:03:41;;;;;;;46.87;29.13;;;;;;;-0.49;100.00;100618.26;1698493;84;21781;-81
2021/12/13 04:06:52;;;;;;;52.73;38.28;;;;;;;-0.52;100.00;100609.93;1699015;84;21871;-81
2021/12/13 04:10:00;;;;;;;44.98;26.10;;;;;;;-0.49;100.00;100606.16;1698162;84;21351;-81
2021/12/13 04:13:12;;;;;;;43.95;28.40;;;;;;;-0.46;100.00;100600.60;1699565;84;21323;-81
2021/12/13 04:16:34;;;;;;;48.42;25.92;;;;;;;-0.47;100.00;100601.58;1685498;84;21200;-80
2021/12/13 04:19:55;;;;;;;47.83;29.20;;;;;;;-0.47;100.00;100598.89;1679022;85;21712;-81
2021/12/13 04:23:03;;;;;;;56.68;28.75;;;;;;;-0.46;100.00;100600.60;1678985;85;21849;-81
2021/12/13 04:26:10;;;;;;;53.63;35.17;;;;;;;-0.49;100.00;100601.27;1699262;84;21346;-81
2021/12/13 04:29:21;;;;;;;52.15;30.88;;;;;;;-0.49;100.00;100587.84;1678370;85;21604;-81
2021/12/13 04:32:34;;;;;;;69.75;45.17;;;;;;;-0.51;100.00;100583.91;1678372;85;21208;-82
2021/12/13 04:35:39;;;;;;;72.58;48.48;;;;;;;-0.51;100.00;100601.38;1682253;85;21184;-81
2021/12/13 04:38:56;;;;;;;59.35;35.73;;;;;;;-0.47;100.00;100604.71;1664569;85;21303;-81
2021/12/13 04:42:13;;;;;;;49.08;27.62;;;;;;;-0.42;100.00;100605.31;1699968;84;21203;-81
2021/12/13 04:45:29;;;;;;;48.92;26.95;;;;;;;-0.38;100.00;100599.60;1697491;84;21173;-81
2021/12/13 04:48:37;;;;;;;53.83;28.73;;;;;;;-0.37;100.00;100607.22;1699567;84;21218;-80
2021/12/13 04:51:50;;;;;;;55.17;32.88;;;;;;;-0.41;100.00;100602.51;1679857;84;21807;-81
2021/12/13 04:54:59;;;;;;;57.33;30.77;;;;;;;-0.39;100.00;100610.47;1674816;84;21343;-81
2021/12/13 04:58:06;;;;;;;44.10;24.77;;;;;;;-0.45;100.00;100600.98;1655988;86;21269;-81
2021/12/13 05:01:15;;;;;;;67.32;39.08;;;;;;;-0.51;100.00;100594.66;1698386;84;21312;-81
2021/12/13 05:04:21;;;;;;;49.35;29.02;;;;;;;-0.54;100.00;100605.59;1697161;84;21390;-81
2021/12/13 05:07:27;;;;;;;100.05;76.90;;;;;;;-0.55;100.00;100597.16;1662293;85;21194;-81
2021/12/13 05:10:32;;;;;;;72.75;48.35;;;;;;;-0.50;100.00;100601.76;1654495;86;21380;-81
2021/12/13 05:13:37;;;;;;;51.60;27.73;;;;;;;-0.45;100.00;100602.33;1654483;86;21333;-82
2021/12/13 05:16:59;;;;;;;55.05;33.55;;;;;;;-0.46;100.00;100595.23;1672407;84;21274;-81
2021/12/13 05:20:27;;;;;;;55.45;30.32;;;;;;;-0.50;100.00;100604.93;1667649;84;21293;-81
2021/12/13 05:23:32;;;;;;;53.90;31.20;;;;;;;-0.54;100.00;100612.31;1670535;86;21271;-81
2021/12/13 05:26:47;;;;;;;62.38;36.35;;;;;;;-0.54;100.00;100628.44;1669818;85;21857;-81
2021/12/13 05:29:55;;;;;;;79.77;39.25;;;;;;;-0.55;100.00;100619.52;1669972;86;21329;-81
2021/12/13 05:33:08;;;;;;;52.83;29.12;;;;;;;-0.54;100.00;100616.34;1671560;84;21419;-81
2021/12/13 05:36:26;;;;;;;76.12;45.78;;;;;;;-0.55;100.00;100605.22;1654838;84;21193;-81
2021/12/13 05:39:33;;;;;;;69.07;44.53;;;;;;;-0.55;100.00;100597.16;1626412;86;21187;-85
2021/12/13 05:42:52;;;;;;;70.35;40.52;;;;;;;-0.52;100.00;100591.57;1626931;86;21676;-82
2021/12/13 05:46:07;;;;;;;56.42;28.27;;;;;;;-0.49;100.00;100598.10;1663313;85;21200;-82
2021/12/13 05:49:16;;;;;;;68.50;42.13;;;;;;;-0.50;100.00;100621.91;1673200;85;21297;-82
2021/12/13 05:52:26;;;;;;;52.30;30.08;;;;;;;-0.52;100.00;100624.71;1627321;86;22190;-82
2021/12/13 05:55:31;;;;;;;94.40;53.45;;;;;;;-0.47;100.00;100629.79;1661072;85;21808;-82
2021/12/13 05:58:56;;;;;;;64.22;35.43;;;;;;;-0.42;100.00;100631.70;1660417;85;21319;-81
2021/12/13 06:02:21;;;;;;;70.57;34.25;;;;;;;-0.38;100.00;100637.72;1651970;85;21237;-82
2021/12/13 06:05:30;;;;;;;60.70;35.20;;;;;;;-0.41;100.00;100634.77;1661716;85;21238;-82
2021/12/13 06:08:40;;;;;;;74.20;45.80;;;;;;;-0.42;100.00;100638.91;1681664;83;22162;-81
2021/12/13 06:11:47;;;;;;;66.25;41.55;;;;;;;-0.43;100.00;100616.52;1689204;83;21342;-82
2021/12/13 06:14:53;;;;;;;67.50;40.70;;;;;;;-0.43;100.00;100616.52;1695130;83;21237;-83
2021/12/13 06:18:05;;;;;;;55.45;30.65;;;;;;;-0.42;100.00;100646.48;1695459;83;21702;-82
2021/12/13 06:21:42;;;;;;;84.05;43.02;;;;;;;-0.44;100.00;100661.83;1692533;83;21249;-83
2021/12/13 06:28:33;;;;;;;89.10;59.45;;;;;;;-0.37;100.00;100624.69;1845866;76;22202;-82
2021/12/13 06:31:50;;;;;;;58.00;34.25;;;;;;;-0.38;100.00;100631.86;1819316;77;21288;-82
2021/12/13 06:35:09;;;;;;;57.35;35.30;;;;;;;-0.34;100.00;100628.02;1755191;77;21184;-81
2021/12/13 06:38:53;;;;;;;74.67;43.38;;;;;;;-0.35;100.00;100624.09;1815390;77;21143;-85
2021/12/13 06:42:11;;;;;;;89.42;56.28;;;;;;;-0.33;100.00;100619.02;1762030;79;21167;-82
2021/12/13 06:45:37;;;;;;;63.30;32.95;;;;;;;-0.28;100.00;100632.16;1791012;77;21638;-81
2021/12/13 06:49:41;;;;;;;63.35;36.33;;;;;;;-0.22;100.00;100642.50;1818732;77;21208;-81
2021/12/13 06:53:21;;;;;;;79.92;45.00;;;;;;;-0.18;100.00;100637.80;1731510;80;21175;-81
2021/12/13 06:56:34;;;;;;;78.33;40.83;;;;;;;-0.17;100.00;100633.66;1765007;79;21215;-81
2021/12/13 06:59:57;;;;;;;86.47;62.95;;;;;;;-0.14;100.00;100648.70;1759606;79;21892;-82
2021/12/13 07:03:27;;;;;;;;;;;;;;;;;;;;;
2021/12/13 07:06:55;;;;;;;;;;;;;;;-0.06;100.00;100632.46;1782254;78;22408;-81
2021/12/13 07:10:08;;;;;;;71.05;47.23;;;;;;;-0.01;100.00;100630.81;1768044;78;20218;-81
2021/12/13 07:13:34;;;;;;;86.17;54.10;;;;;;;0.03;100.00;100627.45;1748963;78;21184;-82
2021/12/13 07:16:42;;;;;;;131.65;87.27;;;;;;;-0.01;100.00;100627.64;1772897;78;21891;-82
2021/12/13 07:19:56;;;;;;;67.30;44.18;;;;;;;-0.03;100.00;100617.48;1756288;80;21200;-81
2021/12/13 07:23:09;;;;;;;81.15;53.90;;;;;;;0.00;100.00;100625.84;1752620;80;21346;-82
2021/12/13 07:26:16;;;;;;;115.95;78.10;;;;;;;0.08;100.00;100622.14;1758149;80;21211;-82
2021/12/13 07:29:50;;;;;;;79.47;53.78;;;;;;;0.13;100.00;100629.41;1703892;81;21327;-80
2021/12/13 07:33:30;;;;;;;60.60;43.25;;;;;;;0.20;100.00;100628.55;1723698;81;21933;-82
2021/12/13 07:36:39;;;;;;;61.20;34.70;;;;;;;0.22;100.00;100638.22;1775915;78;21237;-81
2021/12/13 07:39:44;;;;;;;55.47;31.70;;;;;;;0.23;100.00;100639.94;1786262;78;21212;-82
2021/12/13 07:43:34;;;;;;;76.80;46.73;;;;;;;0.24;100.00;100649.77;1784944;78;21192;-81
2021/12/13 07:46:44;;;;;;;95.53;64.10;;;;;;;0.23;100.00;100645.80;1788743;78;21175;-83
2021/12/13 07:50:10;;;;;;;63.40;39.63;;;;;;;0.21;100.00;100635.16;1757718;79;21223;-82
2021/12/13 07:53:20;;;;;;;81.47;58.70;;;;;;;0.23;100.00;100628.32;1765626;78;21163;-81
2021/12/13 07:57:03;;;;;;;93.92;70.62;;;;;;;0.22;100.00;100628.80;1742520;80;21187;-82
2021/12/13 08:00:17;;;;;;;77.65;49.18;;;;;;;0.29;100.00;100620.34;1765407;78;21203;-82
2021/12/13 08:03:28;;;;;;;65.97;39.92;;;;;;;0.33;100.00;100621.38;1770520;78;21283;-81
2021/12/13 08:06:54;;;;;;;46.70;29.80;;;;;;;0.37;100.00;100636.81;1782530;78;21807;-82
2021/12/13 08:10:17;;;;;;;89.15;62.13;;;;;;;0.39;100.00;100641.14;1784921;78;21667;-81
2021/12/13 08:13:37;;;;;;;78.00;52.88;;;;;;;0.37;100.00;100636.81;1776905;78;21236;-81
2021/12/13 08:16:47;;;;;;;54.58;34.88;;;;;;;0.37;100.00;100636.81;1785397;78;21238;-81
2021/12/13 08:20:10;;;;;;;57.17;34.85;;;;;;;0.37;100.00;100631.43;1797560;78;22375;-81
2021/12/13 08:23:35;;;;;;;51.75;30.65;;;;;;;0.37;100.00;100659.69;1789472;78;21867;-80
2021/12/13 08:26:56;;;;;;;57.45;36.28;;;;;;;0.35;100.00;100657.59;1777903;79;21727;-83
2021/12/13 08:30:41;;;;;;;60.50;38.45;;;;;;;0.36;100.00;100636.44;1766582;79;21318;-79
2021/12/13 08:34:02;;;;;;;44.18;25.55;;;;;;;0.44;100.00;100620.64;1816564;76;22880;-84
2021/12/13 08:37:18;;;;;;;73.10;52.45;;;;;;;0.39;100.00;100633.55;1804944;77;21921;-81
2021/12/13 08:40:36;;;;;;;64.53;43.52;;;;;;;0.40;100.00;100636.62;1808284;77;21214;-80
2021/12/13 08:43:58;;;;;;;55.40;40.05;;;;;;;0.44;100.00;100626.89;1805234;77;21199;-81
2021/12/13 08:47:17;;;;;;;83.37;54.23;;;;;;;0.57;100.00;100617.50;1778449;77;21251;-81
2021/12/13 08:50:36;;;;;;;61.80;40.50;;;;;;;0.67;100.00;100619.94;1799579;77;21279;-82
2021/12/13 08:53:45;;;;;;;60.60;38.28;;;;;;;0.72;100.00;100594.90;1795318;77;21291;-81
2021/12/13 08:56:59;;;;;;;46.33;26.45;;;;;;;0.72;100.00;100594.90;1804057;77;21211;-81
2021/12/13 09:00:23;;;;;;;85.07;60.30;;;;;;;0.73;100.00;100602.00;1815459;77;21385;-79
2021/12/13 09:03:35;;;;;;;;;;;;;;;0.74;100.00;100609.59;1813811;78;21284;-81
2021/12/13 09:10:58;;;;;;;66.92;44.75;;;;;;;0.71;100.00;100602.61;1798664;77;21181;-81
2021/12/13 09:14:24;;;;;;;76.95;47.83;;;;;;;0.76;100.00;100604.98;1806205;77;21366;-79
2021/12/13 09:17:59;;;;;;;46.25;29.23;;;;;;;0.81;100.00;100600.13;1787560;77;21205;-80
2021/12/13 09:21:08;;;;;;;90.35;71.40;;;;;;;0.86;100.00;100587.20;1786073;78;21169;-80
2021/12/13 09:24:57;;;;;;;79.97;55.63;;;;;;;0.94;100.00;100583.95;1777060;78;22087;-79
2021/12/13 09:28:24;;;;;;;45.33;28.15;;;;;;;0.94;100.00;100583.95;1711067;82;21607;-81
2021/12/13 09:31:36;;;;;;;66.35;45.70;;;;;;;0.94;100.00;100584.84;1722965;80;21195;-80
2021/12/13 09:34:45;;;;;;;79.05;60.08;;;;;;;0.93;100.00;100580.40;1695284;80;21200;-81
2021/12/13 09:37:58;;;;;;;68.00;47.78;;;;;;;0.96;100.00;100568.56;1687782;82;21691;-81
2021/12/13 09:41:40;;;;;;;73.40;54.48;;;;;;;0.97;100.00;100569.80;1735359;80;21204;-82
2021/12/13 09:45:08;;;;;;;62.65;50.38;;;;;;;0.99;100.00;100561.63;1708821;80;22066;-82
2021/12/13 09:48:23;;;;;;;70.12;44.77;;;;;;;1.00;100.00;100556.61;1728727;80;22198;-80
2021/12/13 09:51:45;;;;;;;68.25;53.95;;;;;;;0.98;100.00;100554.00;1736004;78;21174;-81
2021/12/13 09:55:22;;;;;;;44.13;26.62;;;;;;;0.96;100.00;100550.56;1782281;77;21749;-82
2021/12/13 09:58:52;;;;;;;41.88;22.58;;;;;;;0.99;100.00;100553.05;1793551;78;22612;-82
2021/12/13 10:02:21;;;;;;;77.78;54.55;;;;;;;1.00;100.00;100545.83;1773206;78;21911;-80
2021/12/13 10:05:49;;;;;;;72.35;52.27;;;;;;;1.01;100.00;100546.20;1771687;79;21274;-82
2021/12/13 10:09:51;;;;;;;46.15;28.42;;;;;;;1.02;100.00;100543.88;1779985;77;21333;-81
2021/12/13 10:13:15;;;;;;;75.37;50.92;;;;;;;1.13;100.00;100556.11;1790007;77;21221;-82
2021/12/13 10:16:34;;;;;;;91.45;67.60;;;;;;;1.24;100.00;100548.11;1782811;77;21455;-81
2021/12/13 10:19:47;;;;;;;66.70;44.23;;;;;;;1.30;100.00;100543.23;1781369;78;21914;-81
2021/12/13 10:23:11;;;;;;;113.08;87.80;;;;;;;1.32;100.00;100533.20;1760200;79;21599;-83
2021/12/13 10:26:47;;;;;;;96.47;72.37;;;;;;;1.27;100.00;100534.42;1755406;77;21153;-83
2021/12/13 10:30:04;;;;;;;62.00;35.30;;;;;;;1.33;100.00;100537.14;1830700;76;23208;-82
2021/12/13 10:33:31;;;;;;;103.20;77.08;;;;;;;1.32;100.00;100543.52;1744614;80;21354;-83
2021/12/13 10:36:43;;;;;;;50.85;33.80;;;;;;;1.28;100.00;100541.52;1719022;80;21187;-83
2021/12/13 10:42:27;;;;;;;78.60;54.48;;;;;;;1.32;100.00;100543.52;1840097;76;22195;-82
2021/12/13 10:45:39;;;;;;;59.30;40.55;;;;;;;1.26;100.00;100540.75;1816096;77;21220;-83
2021/12/13 10:48:49;;;;;;;48.08;30.30;;;;;;;1.27;100.00;100541.16;1814108;77;21314;-83
2021/12/13 10:52:09;;;;;;;47.78;31.45;;;;;;;1.31;100.00;100535.52;1785550;77;22294;-83
2021/12/13 10:55:32;;;;;;;57.95;38.33;;;;;;;1.34;100.00;100533.96;1814172;77;21198;-83
2021/12/13 10:58:48;;;;;;;56.45;36.05;;;;;;;1.39;100.00;100520.52;1814699;77;21271;-82
2021/12/13 11:02:23;;;;;;;85.67;47.17;;;;;;;1.44;100.00;100512.09;1811404;77;21195;-83
2021/12/13 11:05:29;;;;;;;75.87;53.25;;;;;;;1.49;100.00;100517.52;1814214;77;21259;-82
2021/12/13 11:08:41;;;;;;;104.15;80.35;;;;;;;1.47;100.00;100506.48;1816653;77;21311;-82
2021/12/13 11:11:49;;;;;;;88.92;69.22;;;;;;;1.46;100.00;100508.81;1814759;77;21216;-82
2021/12/13 11:15:03;;;;;;;116.00;88.65;;;;;;;1.46;100.00;100509.67;1838979;77;21127;-82
2021/12/13 11:18:17;;;;;;;121.00;99.90;;;;;;;1.49;100.00;100512.61;1773150;77;21174;-81
2021/12/13 11:21:29;;;;;;;179.12;139.47;;;;;;;1.51;100.00;100519.63;1768292;77;21169;-82
2021/12/13 11:24:36;;;;;;;65.92;38.58;;;;;;;1.44;100.00;100512.95;1790204;77;21164;-82
2021/12/13 11:27:41;;;;;;;111.57;81.37;;;;;;;1.40;100.00;100513.29;1793289;77;21192;-81
2021/12/13 11:30:50;;;;;;;99.45;69.67;;;;;;;1.40;100.00;100518.19;1790224;77;22437;-81
2021/12/13 11:34:28;;;;;;;67.85;43.55;;;;;;;1.35;100.00;100519.02;1796600;77;21132;-82
2021/12/13 11:37:58;;;;;;;44.88;24.10;;;;;;;1.33;100.00;100513.38;1791165;77;22215;-82
2021/12/13 11:41:30;;;;;;;61.85;35.03;;;;;;;1.32;100.00;100514.33;1788882;77;21911;-83
2021/12/13 11:45:06;;;;;;;52.98;33.00;;;;;;;1.38;100.00;100511.20;1793833;77;22469;-82
2021/12/13 11:48:43;;;;;;;77.62;53.00;;;;;;;1.40;100.00;100507.90;1783135;77;22239;-82
2021/12/13 11:52:04;;;;;;;61.75;38.92;;;;;;;1.40;100.00;100501.16;1783926;77;21179;-82
2021/12/13 11:56:02;;;;;;;61.13;38.30;;;;;;;1.39;100.00;100498.95;1777598;77;21167;-85
2021/12/13 11:59:40;;;;;;;88.97;70.57;;;;;;;1.31;100.00;100499.14;1789223;77;22240;-83
2021/12/13 12:03:25;;;;;;;57.45;33.05;;;;;;;1.28;100.00;100493.02;1787897;77;21163;-82
2021/12/13 12:07:03;;;;;;;81.12;59.10;;;;;;;1.28;100.00;100497.55;1791818;77;22210;-82
2021/12/13 12:10:42;;;;;;;64.25;39.75;;;;;;;1.30;100.00;100505.02;1791913;77;21284;-81
2021/12/13 12:14:06;;;;;;;43.65;29.75;;;;;;;1.33;100.00;100513.38;1791028;77;21244;-81
2021/12/13 12:17:14;;;;;;;44.98;25.05;;;;;;;1.35;100.00;100503.33;1784784;77;21169;-82
2021/12/13 12:20:28;;;;;;;36.13;17.00;;;;;;;1.34;100.00;100500.27;1792287;77;21153;-82
2021/12/13 12:23:42;;;;;;;36.80;20.55;;;;;;;1.32;100.00;100511.17;1790574;77;21188;-82
2021/12/13 12:26:49;;;;;;;28.55;14.55;;;;;;;1.32;100.00;100502.20;1785291;77;21821;-80
2021/12/13 12:30:05;;;;;;;27.62;12.85;;;;;;;1.22;100.00;100502.91;1776287;77;21180;-82
2021/12/13 12:33:16;;;;;;;28.38;15.13;;;;;;;1.14;100.00;100505.78;1794319;77;21184;-82
2021/12/13 12:36:32;;;;;;;29.70;12.78;;;;;;;1.11;100.00;100511.37;1719661;79;1685257;-82
2021/12/13 12:40:16;;;;;;;29.52;13.28;;;;;;;1.11;100.00;100502.80;1748664;80;21148;-81
2021/12/13 12:43:40;;;;;;;;;;;;;;;;;;;;;
2021/12/13 12:46:47;;;;;;;32.13;14.40;;;;;;;1.23;100.00;100491.14;1840205;76;22564;-89
2021/12/13 12:49:53;;;;;;;43.05;16.10;;;;;;;1.20;100.00;100498.09;1814585;77;21346;-82
2021/12/13 12:53:04;;;;;;;33.88;15.85;;;;;;;1.22;100.00;100504.25;1754678;78;21157;-82
2021/12/13 12:56:14;;;;;;;23.05;12.30;;;;;;;1.24;100.00;100500.09;1756486;80;21190;-82
2021/12/13 12:59:31;;;;;;;26.68;12.23;;;;;;;1.26;100.00;100500.33;1761960;80;21203;-82
2021/12/13 13:02:43;;;;;;;30.77;13.18;;;;;;;1.26;100.00;100492.73;1762755;80;21204;-83
2021/12/13 13:05:50;;;;;;;24.98;12.07;;;;;;;1.26;100.00;100504.86;1760411;80;21211;-83
2021/12/13 13:08:59;;;;;;;20.72;11.38;;;;;;;1.26;100.00;100503.03;1761221;80;21468;-83
2021/12/13 13:12:04;;;;;;;28.15;11.40;;;;;;;1.22;100.00;100497.52;1764026;80;21295;-83
2021/12/13 13:15:20;;;;;;;28.70;11.18;;;;;;;1.19;100.00;100502.26;1762931;79;21175;-83
2021/12/13 13:18:33;;;;;;;31.33;16.35;;;;;;;1.19;100.00;100496.88;1734354;81;21850;-83
2021/12/13 13:21:41;;;;;;;27.15;13.93;;;;;;;1.15;100.00;100498.92;1723273;81;21290;-83
2021/12/13 13:24:51;;;;;;;23.62;12.35;;;;;;;1.15;100.00;100523.17;1705655;80;22118;-84
2021/12/13 13:27:55;;;;;;;18.75;10.98;;;;;;;1.21;100.00;100517.33;1733027;80;21188;-83
2021/12/13 13:31:09;;;;;;;21.30;10.95;;;;;;;1.22;100.00;100519.08;1731315;81;21321;-83
2021/12/13 13:34:18;;;;;;;24.87;10.88;;;;;;;1.30;100.00;100518.98;1731639;81;21901;-82
2021/12/13 13:37:27;;;;;;;22.05;10.85;;;;;;;1.28;100.00;100524.01;1723790;81;21302;-83
2021/12/13 13:40:38;;;;;;;18.92;10.05;;;;;;;1.28;100.00;100513.23;1732261;81;22104;-83
2021/12/13 13:43:43;;;;;;;20.80;11.75;;;;;;;1.31;100.00;100509.92;1727678;81;21188;-82
2021/12/13 13:46:53;;;;;;;24.07;12.20;;;;;;;1.32;100.00;100501.74;1718586;81;22245;-83
2021/12/13 13:49:58;;;;;;;23.02;11.05;;;;;;;1.24;100.00;100519.80;1717412;82;21213;-82
2021/12/13 13:53:15;;;;;;;20.90;12.20;;;;;;;1.23;100.00;100528.02;1719093;82;21245;-84
2021/12/13 13:56:27;;;;;;;31.60;13.93;;;;;;;1.21;100.00;100519.16;1681781;83;21310;-83
2021/12/13 13:59:32;;;;;;;28.73;16.55;;;;;;;1.19;100.00;100526.52;1721696;82;21337;-83
2021/12/13 14:02:45;;;;;;;30.00;14.70;;;;;;;1.11;100.00;100510.03;1722451;82;21345;-83
2021/12/13 14:05:54;;;;;;;29.57;13.72;;;;;;;1.04;100.00;100499.34;1701657;83;21280;-82
2021/12/13 14:09:05;;;;;;;23.25;13.30;;;;;;;1.03;100.00;100506.53;1702378;82;21560;-82
2021/12/13 14:12:33;;;;;;;24.15;13.43;;;;;;;1.03;100.00;100526.73;1694895;83;21288;-83
2021/12/13 14:15:44;;;;;;;28.60;12.75;;;;;;;1.04;100.00;100524.93;1695002;83;21182;-83
2021/12/13 14:18:49;;;;;;;32.58;15.72;;;;;;;1.07;100.00;100526.03;1704592;83;21205;-83
2021/12/13 14:21:54;;;;;;;22.48;14.13;;;;;;;1.07;100.00;100530.08;1706505;82;21196;-83
2021/12/13 14:25:00;;;;;;;23.27;12.75;;;;;;;1.09;100.00;100529.02;1701527;83;21335;-83
2021/12/13 14:28:05;;;;;;;23.80;13.75;;;;;;;1.12;100.00;100527.42;1715710;82;21366;-83
2021/12/13 14:31:30;;;;;;;28.55;12.53;;;;;;;1.13;100.00;100510.31;1705535;83;21314;-83
2021/12/13 14:34:36;;;;;;;34.13;13.13;;;;;;;1.10;100.00;100511.01;1720527;82;21818;-83
2021/12/13 14:37:42;;;;;;;32.80;14.05;;;;;;;1.02;100.00;100507.51;1703877;83;21239;-83
2021/12/13 14:40:58;;;;;;;27.20;11.35;;;;;;;1.02;100.00;100507.02;1722639;82;21759;-83
2021/12/13 14:44:08;;;;;;;25.35;11.88;;;;;;;1.04;100.00;100508.77;1722944;82;21283;-83
2021/12/13 14:47:18;;;;;;;31.87;12.93;;;;;;;1.08;100.00;100512.45;1719251;82;21269;-83
2021/12/13 14:50:27;;;;;;;20.97;11.38;;;;;;;1.11;100.00;100513.58;1714211;82;21280;-83
2021/12/13 14:53:36;;;;;;;21.30;12.63;;;;;;;1.06;100.00;100511.70;1712031;83;21303;-83
2021/12/13 14:56:41;;;;;;;24.67;12.75;;;;;;;1.04;100.00;100528.48;1712347;83;21815;-82
2021/12/13 14:59:53;;;;;;;29.48;12.63;;;;;;;1.04;100.00;100539.26;1712547;83;21299;-82
2021/12/13 15:03:00;;;;;;;20.88;11.80;;;;;;;1.06;100.00;100531.05;1712933;83;21736;-83
2021/12/13 15:06:13;;;;;;;24.60;13.03;;;;;;;1.05;100.00;100532.89;1712392;83;21311;-83
2021/12/13 15:09:32;;;;;;;20.37;12.13;;;;;;;1.05;100.00;100524.81;1770457;81;21831;-83